Time;durP1;ratioP1;P1;durP2;ratioP2;P2;SDS_P1;SDS_P2;PMS_P1;PMS_P2;Temp;Humidity;BMP_temperature;BMP_pressure;BME280_temperature;BME280_humidity;BME280_pressure;Samples;Min_cycle;Max_cycle;Signal;HPM_P1;HPM_P2
2021/01/07 00:00:09;;;;;;;17.97;10.50;;;;;;;-0.31;85.39;98387.30;119829;1144;65107;-85
2021/01/07 00:02:58;;;;;;;15.17;8.97;;;;;;;-0.34;85.43;98383.01;119847;1144;65075;-87
2021/01/07 00:05:25;;;;;;;19.97;9.83;;;;;;;-0.34;85.50;98387.41;119807;1144;65101;-86
2021/01/07 00:07:51;;;;;;;15.95;9.55;;;;;;;-0.37;85.52;98388.39;119845;1144;65223;-87
2021/01/07 00:10:17;;;;;;;18.70;9.75;;;;;;;-0.39;84.98;98387.58;119832;1144;65117;-86
2021/01/07 00:12:44;;;;;;;13.50;7.70;;;;;;;-0.39;85.09;98382.33;119826;1144;65020;-88
2021/01/07 00:15:10;;;;;;;14.75;8.40;;;;;;;-0.38;85.05;98391.05;119806;1144;65199;-85
2021/01/07 00:17:37;;;;;;;14.90;8.77;;;;;;;-0.40;84.84;98391.12;119855;1144;65177;-86
2021/01/07 00:20:08;;;;;;;14.67;8.00;;;;;;;-0.38;85.48;98396.30;119834;1144;65105;-86
2021/01/07 00:22:35;;;;;;;11.73;6.93;;;;;;;-0.37;85.82;98396.27;119806;1145;65108;-85
2021/01/07 00:25:04;;;;;;;14.80;8.70;;;;;;;-0.36;85.19;98399.73;119830;1145;65054;-85
2021/01/07 00:27:31;;;;;;;11.63;7.97;;;;;;;-0.37;85.69;98403.28;119842;1144;65581;-86
2021/01/07 00:29:57;;;;;;;15.93;8.23;;;;;;;-0.34;85.04;98397.90;119822;1145;65018;-88
2021/01/07 00:32:24;;;;;;;15.97;7.47;;;;;;;-0.33;85.20;98394.36;119810;1144;65162;-86
2021/01/07 00:34:51;;;;;;;14.13;8.03;;;;;;;-0.31;85.45;98396.03;119793;1144;65076;-86
2021/01/07 00:37:18;;;;;;;16.55;9.95;;;;;;;-0.28;85.10;98401.14;119879;1145;65075;-85
2021/01/07 00:39:44;;;;;;;15.63;9.57;;;;;;;-0.28;85.65;98403.77;119860;1145;65191;-87
2021/01/07 00:42:11;;;;;;;15.90;8.95;;;;;;;-0.29;85.74;98406.45;119809;1145;65092;-86
2021/01/07 00:44:37;;;;;;;18.45;9.65;;;;;;;-0.25;85.66;98401.92;119822;1145;65111;-87
2021/01/07 00:47:03;;;;;;;17.98;9.65;;;;;;;-0.22;85.76;98407.07;119845;1144;65133;-85
2021/01/07 00:49:30;;;;;;;12.65;8.20;;;;;;;-0.24;85.83;98406.28;119801;1145;65174;-85
2021/01/07 00:51:56;;;;;;;14.27;8.37;;;;;;;-0.27;85.12;98410.72;119880;1145;65155;-85
2021/01/07 00:54:23;;;;;;;15.13;8.40;;;;;;;-0.22;85.74;98407.07;119834;1145;65146;-85
2021/01/07 00:56:50;;;;;;;12.30;7.30;;;;;;;-0.22;85.28;98407.07;119852;1144;65058;-85
2021/01/07 00:59:20;;;;;;;10.67;7.07;;;;;;;-0.24;85.58;98414.16;119814;1144;65188;-85
2021/01/07 01:01:48;;;;;;;12.90;7.57;;;;;;;-0.30;85.41;98418.72;119803;1145;65047;-85
2021/01/07 01:04:15;;;;;;;17.17;8.33;;;;;;;-0.30;85.37;98421.34;119903;1144;65159;-85
2021/01/07 01:06:44;;;;;;;11.40;7.33;;;;;;;-0.27;85.51;98425.61;119893;1144;65089;-84
2021/01/07 01:09:12;;;;;;;14.57;7.33;;;;;;;-0.26;85.49;98427.31;119830;1145;65265;-86
2021/01/07 01:11:45;;;;;;;10.13;6.23;;;;;;;-0.25;85.84;98422.91;119930;1144;65133;-86
2021/01/07 01:14:19;;;;;;;12.13;7.40;;;;;;;-0.24;85.49;98420.26;119866;1145;65197;-88
2021/01/07 01:16:50;;;;;;;13.83;6.75;;;;;;;-0.26;85.79;98422.06;119804;1142;65095;-86
2021/01/07 01:19:17;;;;;;;9.15;6.75;;;;;;;-0.31;85.49;98426.66;119813;1145;65135;-84
2021/01/07 01:21:44;;;;;;;9.57;6.07;;;;;;;-0.32;85.37;98423.18;119882;1144;65134;-84
2021/01/07 01:24:11;;;;;;;9.37;6.00;;;;;;;-0.34;85.79;98422.36;119866;1145;65214;-88
2021/01/07 01:26:37;;;;;;;7.77;5.60;;;;;;;-0.33;85.25;98410.09;119812;1144;65107;-85
2021/01/07 01:29:04;;;;;;;10.60;6.30;;;;;;;-0.34;85.22;98416.27;119864;1145;65027;-84
2021/01/07 01:31:30;;;;;;;9.70;5.73;;;;;;;-0.34;85.56;98408.39;119833;1144;65136;-88
2021/01/07 01:33:57;;;;;;;12.37;6.80;;;;;;;-0.38;85.75;98407.67;119804;1145;65185;-84
2021/01/07 01:36:27;;;;;;;9.20;6.03;;;;;;;-0.39;85.79;98416.43;119863;1145;65262;-86
2021/01/07 01:38:54;;;;;;;9.90;6.20;;;;;;;-0.40;85.41;98413.88;119872;1144;65184;-85
2021/01/07 01:41:21;;;;;;;9.33;5.97;;;;;;;-0.36;85.84;98421.58;119816;1143;65232;-84
2021/01/07 01:43:48;;;;;;;9.00;5.27;;;;;;;-0.36;85.16;98416.33;119814;1145;65409;-87
2021/01/07 01:46:14;;;;;;;9.37;5.73;;;;;;;-0.39;85.67;98411.19;119762;1144;65229;-84
2021/01/07 01:48:41;;;;;;;10.25;6.53;;;;;;;-0.41;86.13;98413.02;119825;1145;65167;-88
2021/01/07 01:51:08;;;;;;;7.70;5.30;;;;;;;-0.42;85.39;98411.31;119788;1143;65113;-85
2021/01/07 01:53:38;;;;;;;10.53;5.50;;;;;;;-0.42;85.65;98408.70;119827;1145;66898;-85
2021/01/07 01:56:06;;;;;;;8.10;5.40;;;;;;;-0.42;85.65;98410.47;119871;1144;65078;-86
2021/01/07 01:58:35;;;;;;;6.63;5.17;;;;;;;-0.42;86.06;98413.09;119803;1145;65091;-86
2021/01/07 02:01:02;;;;;;;8.75;5.40;;;;;;;-0.42;85.38;98407.84;119874;1145;65018;-84
2021/01/07 02:03:29;;;;;;;7.57;5.60;;;;;;;-0.42;86.26;98410.47;119852;1144;65068;-86
2021/01/07 02:05:56;;;;;;;8.43;5.73;;;;;;;-0.43;85.36;98406.98;119832;1145;65104;-85
2021/01/07 02:08:24;;;;;;;10.40;5.77;;;;;;;-0.43;85.37;98412.23;119874;1144;65097;-85
2021/01/07 02:10:51;;;;;;;8.53;5.47;;;;;;;-0.41;85.20;98412.17;119820;1144;65161;-86
2021/01/07 02:13:18;;;;;;;6.53;4.17;;;;;;;-0.42;85.66;98406.07;119796;1144;65207;-85
2021/01/07 02:15:45;;;;;;;7.20;5.05;;;;;;;-0.45;85.07;98405.31;119839;1145;65100;-85
2021/01/07 02:18:11;;;;;;;8.97;5.67;;;;;;;-0.43;85.47;98408.76;119796;1145;65167;-87
2021/01/07 02:20:38;;;;;;;7.35;4.90;;;;;;;-0.47;85.07;98394.89;119894;1145;65175;-87
2021/01/07 02:23:05;;;;;;;7.35;4.75;;;;;;;-0.50;85.34;98402.04;119827;1144;65091;-86
2021/01/07 02:25:31;;;;;;;9.03;5.60;;;;;;;-0.52;85.09;98403.84;119821;1144;65124;-85
2021/01/07 02:27:58;;;;;;;7.70;4.57;;;;;;;-0.52;85.62;98404.70;119814;1144;65085;-84
2021/01/07 02:30:25;;;;;;;8.10;4.70;;;;;;;-0.51;85.32;98402.92;119868;1144;65079;-86
2021/01/07 02:32:51;;;;;;;8.35;5.40;;;;;;;-0.53;85.01;98405.61;119789;1145;65055;-88
2021/01/07 02:35:18;;;;;;;7.67;5.27;;;;;;;-0.54;84.79;98401.29;119820;1145;65573;-86
2021/01/07 02:37:46;;;;;;;8.33;5.60;;;;;;;-0.57;85.73;98396.17;119804;1145;65092;-83
2021/01/07 02:40:13;;;;;;;8.00;5.45;;;;;;;-0.57;85.01;98409.29;119793;1144;65614;-87
2021/01/07 02:42:40;;;;;;;6.13;4.47;;;;;;;-0.57;85.21;98401.42;119792;1144;65121;-86
2021/01/07 02:45:11;;;;;;;5.80;4.45;;;;;;;-0.58;85.62;98399.68;119816;1144;65021;-86
2021/01/07 02:47:38;;;;;;;6.77;4.20;;;;;;;-0.58;85.59;98403.16;119863;1144;65267;-88
2021/01/07 02:50:07;;;;;;;7.83;5.27;;;;;;;-0.57;85.99;98398.80;119820;1145;65168;-85
2021/01/07 02:52:34;;;;;;;7.97;5.47;;;;;;;-0.57;85.78;98401.42;119845;1144;65076;-85
2021/01/07 02:55:01;;;;;;;8.23;5.20;;;;;;;-0.58;85.66;98407.55;119815;1145;65072;-85
2021/01/07 02:57:27;;;;;;;7.00;4.97;;;;;;;-0.60;84.97;98404.14;119796;1144;65127;-85
2021/01/07 02:59:54;;;;;;;6.97;5.00;;;;;;;-0.62;84.83;98403.35;119771;1144;65263;-84
2021/01/07 03:02:21;;;;;;;7.60;5.25;;;;;;;-0.62;85.66;98400.73;119851;1145;65073;-84
2021/01/07 03:04:48;;;;;;;7.43;5.47;;;;;;;-0.62;85.25;98404.20;119819;1144;65127;-85
2021/01/07 03:07:14;;;;;;;8.40;4.95;;;;;;;-0.61;85.22;98407.68;119804;1144;65216;-85
2021/01/07 03:09:44;;;;;;;8.40;5.53;;;;;;;-0.61;85.33;98405.06;119837;1144;65101;-83
2021/01/07 03:12:16;;;;;;;7.33;5.00;;;;;;;-0.61;85.34;98410.30;119818;1144;65188;-84
2021/01/07 03:14:44;;;;;;;8.27;5.00;;;;;;;-0.60;85.46;98397.12;119803;1144;65101;-86
2021/01/07 03:17:10;;;;;;;9.33;5.47;;;;;;;-0.58;85.11;98408.41;119814;1145;65136;-84
2021/01/07 03:19:37;;;;;;;8.20;4.60;;;;;;;-0.58;85.49;98408.41;119861;1144;65631;-83
2021/01/07 03:22:04;;;;;;;8.07;5.17;;;;;;;-0.56;85.12;98410.99;119862;1145;65136;-85
2021/01/07 03:24:33;;;;;;;7.33;5.43;;;;;;;-0.56;85.55;98418.86;119832;1144;65255;-88
2021/01/07 03:26:59;;;;;;;6.47;4.37;;;;;;;-0.59;85.65;98413.71;119896;1144;65114;-87
2021/01/07 03:29:26;;;;;;;8.55;5.50;;;;;;;-0.63;85.63;98406.89;119777;1145;65184;-85
2021/01/07 03:31:54;;;;;;;9.87;6.30;;;;;;;-0.65;85.30;98408.70;119842;1144;65092;-86
2021/01/07 03:34:21;;;;;;;9.13;5.63;;;;;;;-0.67;85.63;98406.14;119850;1144;65098;-85
2021/01/07 03:36:49;;;;;;;8.17;4.47;;;;;;;-0.68;84.88;98407.05;119829;1146;65171;-87
2021/01/07 03:39:15;;;;;;;9.20;5.83;;;;;;;-0.71;85.62;98408.92;119772;1144;65098;-84
2021/01/07 03:41:42;;;;;;;9.00;5.80;;;;;;;-0.73;85.79;98410.75;119827;1145;65069;-89
2021/01/07 03:44:09;;;;;;;8.10;5.73;;;;;;;-0.74;85.08;98406.42;119868;1144;65124;-86
2021/01/07 03:46:35;;;;;;;7.05;5.25;;;;;;;-0.74;84.89;98404.66;119838;1144;65198;-85
2021/01/07 03:49:02;;;;;;;6.97;5.07;;;;;;;-0.74;85.78;98404.66;119863;1144;65252;-89
2021/01/07 03:51:28;;;;;;;8.40;5.50;;;;;;;-0.76;86.07;98411.73;119825;1145;65207;-85
2021/01/07 03:53:55;;;;;;;7.90;5.00;;;;;;;-0.77;84.92;98409.14;119852;1145;65167;-85
2021/01/07 03:56:21;;;;;;;8.77;5.60;;;;;;;-0.79;85.42;98410.98;119827;1145;65194;-88
2021/01/07 03:58:48;;;;;;;7.83;5.33;;;;;;;-0.79;84.97;98413.59;119873;1145;65220;-86
2021/01/07 04:01:14;;;;;;;7.00;5.37;;;;;;;-0.76;85.95;98413.47;119818;1144;65245;-85
2021/01/07 04:03:40;;;;;;;8.43;5.33;;;;;;;-0.76;85.57;98416.09;119824;1145;65139;-84
2021/01/07 04:06:07;;;;;;;9.40;6.07;;;;;;;-0.76;85.00;98416.09;119846;1144;65017;-86
2021/01/07 04:08:33;;;;;;;6.33;4.93;;;;;;;-0.78;85.25;98415.30;119825;1145;65162;-88
2021/01/07 04:11:00;;;;;;;8.03;5.13;;;;;;;-0.78;85.20;98412.69;119847;1145;65157;-84
2021/01/07 04:13:26;;;;;;;8.97;6.33;;;;;;;-0.78;85.40;98417.92;119849;1144;65146;-87
2021/01/07 04:15:52;;;;;;;7.93;5.63;;;;;;;-0.79;85.44;98406.59;119831;1145;65088;-88
2021/01/07 04:18:19;;;;;;;10.50;5.77;;;;;;;-0.79;85.38;98416.22;119818;1145;65209;-85
2021/01/07 04:20:46;;;;;;;9.63;6.27;;;;;;;-0.79;85.74;98411.83;119825;1145;65065;-86
2021/01/07 04:23:12;;;;;;;8.10;5.55;;;;;;;-0.80;85.66;98415.37;119806;1144;65139;-84
2021/01/07 04:25:39;;;;;;;9.95;6.30;;;;;;;-0.82;85.95;98412.81;119796;1144;65178;-88
2021/01/07 04:28:05;;;;;;;11.97;6.43;;;;;;;-0.80;86.06;98409.27;119863;1144;65065;-85
2021/01/07 04:30:32;;;;;;;9.28;6.10;;;;;;;-0.82;84.96;98412.81;119852;1144;65200;-86
2021/01/07 04:32:58;;;;;;;8.70;5.90;;;;;;;-0.83;85.18;98413.73;119884;1144;65097;-87
2021/01/07 04:35:25;;;;;;;7.20;4.73;;;;;;;-0.85;85.69;98414.67;119808;1144;65114;-86
2021/01/07 04:37:51;;;;;;;9.87;6.33;;;;;;;-0.86;85.08;98415.59;119807;1144;65210;-85
2021/01/07 04:40:18;;;;;;;10.10;5.85;;;;;;;-0.88;85.48;98418.27;119911;1144;65140;-85
2021/01/07 04:42:44;;;;;;;9.47;6.37;;;;;;;-0.88;85.31;98418.27;119874;1144;65095;-84
2021/01/07 04:45:12;;;;;;;9.80;6.90;;;;;;;-0.89;85.27;98424.44;119835;1145;65101;-84
2021/01/07 04:47:40;;;;;;;10.23;6.90;;;;;;;-0.88;85.08;98423.52;119899;1144;65181;-85
2021/01/07 04:50:07;;;;;;;8.07;6.10;;;;;;;-0.86;85.18;98424.30;119834;1144;65252;-85
2021/01/07 04:52:34;;;;;;;11.60;7.97;;;;;;;-0.86;85.60;98419.06;119671;1144;65197;-85
2021/01/07 04:55:02;;;;;;;12.77;7.90;;;;;;;-0.87;86.07;98419.12;119506;1145;65108;-85
2021/01/07 04:57:29;;;;;;;9.30;6.35;;;;;;;-0.87;85.71;98417.36;119643;1144;65105;-86
2021/01/07 04:59:56;;;;;;;9.90;7.10;;;;;;;-0.85;85.58;98418.15;119794;1144;65194;-85
2021/01/07 05:02:23;;;;;;;9.47;6.70;;;;;;;-0.83;85.29;98420.70;119796;1144;65040;-86
2021/01/07 05:04:52;;;;;;;11.55;7.40;;;;;;;-0.86;85.54;98416.45;119864;1144;65103;-88
2021/01/07 05:07:20;;;;;;;10.00;6.80;;;;;;;-0.86;85.35;98416.45;119845;1144;65105;-86
2021/01/07 05:09:59;;;;;;;11.20;6.40;;;;;;;-0.86;85.58;98413.83;119851;1144;65239;-86
2021/01/07 05:12:25;;;;;;;10.20;7.00;;;;;;;-0.86;85.33;98415.59;119872;1144;65167;-87
2021/01/07 05:14:51;;;;;;;10.73;6.83;;;;;;;-0.86;85.40;98416.45;119818;1144;65200;-84
2021/01/07 05:17:18;;;;;;;10.83;7.33;;;;;;;-0.86;85.90;98413.83;119779;1144;65187;-86
2021/01/07 05:19:45;;;;;;;11.85;7.75;;;;;;;-0.88;85.39;98415.66;119850;1144;65048;-85
2021/01/07 05:22:11;;;;;;;12.20;7.45;;;;;;;-0.88;85.79;98422.66;119899;1145;65075;-86
2021/01/07 05:24:38;;;;;;;12.13;7.83;;;;;;;-0.90;85.30;98420.08;119780;1145;65162;-87
2021/01/07 05:27:10;;;;;;;15.50;9.43;;;;;;;-0.89;85.39;98423.55;119914;1144;65156;-85
2021/01/07 05:29:39;;;;;;;10.93;7.43;;;;;;;-0.89;86.08;98427.05;119880;1144;65163;-86
2021/01/07 05:32:10;;;;;;;11.85;7.95;;;;;;;-0.89;85.94;98427.05;119875;1145;65164;-85
2021/01/07 05:35:04;;;;;;;13.80;8.37;;;;;;;-0.91;85.94;98420.99;119879;1145;65095;-86
2021/01/07 05:37:39;;;;;;;13.60;8.73;;;;;;;-0.91;86.38;98425.38;119891;1145;65126;-85
2021/01/07 05:40:07;;;;;;;16.83;10.50;;;;;;;-0.89;85.43;98426.17;119893;1145;65078;-85
2021/01/07 05:42:41;;;;;;;13.75;8.45;;;;;;;-0.90;86.37;98430.56;119875;1144;65101;-87
2021/01/07 05:45:10;;;;;;;16.40;8.70;;;;;;;-0.87;85.42;98426.99;119862;1144;65089;-86
2021/01/07 05:47:50;;;;;;;10.70;6.73;;;;;;;-0.89;86.33;98419.19;119828;1145;65098;-87
2021/01/07 05:50:19;;;;;;;14.73;9.63;;;;;;;-0.92;85.52;98418.43;119853;1144;65062;-86
2021/01/07 05:52:48;;;;;;;14.37;8.77;;;;;;;-0.92;86.10;98421.91;119847;1144;65244;-87
2021/01/07 05:55:17;;;;;;;15.45;9.15;;;;;;;-0.92;86.25;98421.91;119883;1145;65079;-85
2021/01/07 05:57:44;;;;;;;17.37;9.43;;;;;;;-0.92;85.89;98421.91;119853;1145;65567;-88
2021/01/07 06:00:12;;;;;;;12.55;8.45;;;;;;;-0.91;85.68;98423.61;119777;1144;65091;-88
2021/01/07 06:02:41;;;;;;;12.67;8.07;;;;;;;-0.90;86.16;98417.45;119920;1144;65191;-87
2021/01/07 06:05:13;;;;;;;13.80;8.43;;;;;;;-0.90;85.96;98425.31;119746;1145;65092;-87
2021/01/07 06:07:40;;;;;;;14.87;9.20;;;;;;;-0.91;86.22;98420.14;120115;1144;65183;-87
2021/01/07 06:10:09;;;;;;;17.10;9.55;;;;;;;-0.91;86.44;98428.00;119888;1144;65208;-87
2021/01/07 06:12:36;;;;;;;15.00;9.57;;;;;;;-0.90;85.96;98424.46;119898;1144;65089;-85
2021/01/07 06:15:10;;;;;;;14.50;9.20;;;;;;;-0.91;86.27;98426.23;119972;1144;65076;-85
2021/01/07 06:17:38;;;;;;;11.03;7.83;;;;;;;-0.91;86.47;98420.99;119928;1145;65262;-85
2021/01/07 06:20:11;;;;;;;15.40;9.20;;;;;;;-0.92;86.56;98421.91;120126;1145;65181;-87
2021/01/07 06:22:46;;;;;;;16.70;9.65;;;;;;;-0.90;86.43;98421.84;119859;1144;65092;-86
2021/01/07 06:25:14;;;;;;;;;;;;;;;-0.91;86.04;98425.38;119881;1145;65574;-87
2021/01/07 06:27:42;;;;;;;17.70;10.23;;;;;;;-0.92;86.30;98426.30;119846;1144;65184;-87
2021/01/07 06:30:08;;;;;;;16.80;9.60;;;;;;;-0.92;86.23;98432.39;119833;1144;65146;-87
2021/01/07 06:32:35;;;;;;;18.13;10.47;;;;;;;-0.90;86.75;98433.18;119891;1145;65171;-86
2021/01/07 06:35:06;;;;;;;16.80;9.80;;;;;;;-0.89;86.50;98427.05;119840;1145;65101;-89
2021/01/07 06:37:42;;;;;;;16.57;10.33;;;;;;;-0.88;86.36;98434.00;119807;1145;65053;-87
2021/01/07 06:40:12;;;;;;;18.20;11.10;;;;;;;-0.86;86.39;98434.80;119846;1145;65089;-87
2021/01/07 06:42:41;;;;;;;15.73;9.43;;;;;;;-0.85;86.54;98439.13;119857;1144;65149;-86
2021/01/07 06:45:10;;;;;;;18.93;10.17;;;;;;;-0.83;86.41;98439.94;119885;1144;65153;-87
2021/01/07 06:47:39;;;;;;;12.80;8.03;;;;;;;-0.81;86.58;98445.13;119796;1144;65084;-85
2021/01/07 06:50:06;;;;;;;14.80;9.80;;;;;;;-0.79;86.01;98445.06;119836;1145;65168;-86
2021/01/07 06:52:39;;;;;;;15.50;8.90;;;;;;;-0.77;86.31;98451.09;119847;1144;65191;-86
2021/01/07 06:55:14;;;;;;;17.70;10.80;;;;;;;-0.78;86.26;98452.01;119847;1145;65099;-87
2021/01/07 06:58:01;;;;;;;21.42;13.50;;;;;;;-0.78;86.04;98452.86;119894;1144;65178;-87
2021/01/07 07:00:27;;;;;;;18.83;11.57;;;;;;;-0.77;86.26;98451.95;119876;1144;65102;-87
2021/01/07 07:03:09;;;;;;;20.40;11.57;;;;;;;-0.76;85.99;98461.55;119675;1145;64993;-85
2021/01/07 07:05:38;;;;;;;18.10;10.97;;;;;;;-0.74;86.38;98464.96;119547;1144;65078;-85
2021/01/07 07:08:11;;;;;;;17.43;10.67;;;;;;;-0.73;86.27;98460.57;119565;1144;65279;-90
2021/01/07 07:10:38;;;;;;;17.13;9.83;;;;;;;-0.71;86.45;98466.61;119685;1144;65085;-87
2021/01/07 07:13:20;;;;;;;16.83;10.37;;;;;;;-0.67;86.07;98468.22;119658;1145;65143;-88
2021/01/07 07:15:49;;;;;;;15.70;9.57;;;;;;;-0.64;86.34;98475.95;119875;1144;65193;-85
2021/01/07 07:18:26;;;;;;;17.93;9.43;;;;;;;-0.61;85.47;98475.86;119899;1144;65108;-87
2021/01/07 07:20:53;;;;;;;25.20;12.43;;;;;;;-0.59;86.39;98481.90;119814;1145;65193;-87
2021/01/07 07:23:22;;;;;;;27.53;15.20;;;;;;;-0.59;86.27;98474.03;119876;1144;65095;-85
2021/01/07 07:25:53;;;;;;;28.10;15.23;;;;;;;-0.56;85.81;98484.42;119865;1145;65040;-86
2021/01/07 07:28:25;;;;;;;22.50;12.27;;;;;;;-0.52;86.17;98483.38;119897;1144;65259;-85
2021/01/07 07:30:52;;;;;;;19.60;12.30;;;;;;;-0.50;85.40;98492.08;119830;1144;65102;-89
2021/01/07 07:33:42;;;;;;;21.40;12.00;;;;;;;-0.49;86.29;98491.16;119824;1144;65447;-87
2021/01/07 07:36:10;;;;;;;27.90;13.60;;;;;;;-0.46;86.41;98493.65;119895;1144;65286;-87
2021/01/07 07:38:38;;;;;;;19.67;11.40;;;;;;;-0.41;86.34;98496.97;119822;1144;65089;-86
2021/01/07 07:41:07;;;;;;;21.17;11.37;;;;;;;-0.39;85.92;98494.28;119957;1145;65114;-86
2021/01/07 07:43:35;;;;;;;20.23;10.23;;;;;;;-0.39;86.06;98500.37;119872;1144;65084;-85
2021/01/07 07:46:04;;;;;;;26.90;12.93;;;;;;;-0.37;85.72;98488.08;119809;1144;65207;-87
2021/01/07 07:48:33;;;;;;;27.13;13.97;;;;;;;-0.34;85.74;98492.34;119847;1145;65099;-89
2021/01/07 07:51:10;;;;;;;21.70;12.97;;;;;;;-0.31;85.98;98492.25;119924;1144;65134;-87
2021/01/07 07:53:39;;;;;;;28.40;13.70;;;;;;;-0.30;85.05;98497.44;119873;1145;65056;-86
2021/01/07 07:56:25;;;;;;;29.60;13.87;;;;;;;-0.26;85.44;98503.41;119858;1144;65193;-86
2021/01/07 07:59:00;;;;;;;33.00;13.10;;;;;;;-0.23;85.52;98499.83;119788;1144;65095;-85
2021/01/07 08:01:44;;;;;;;20.92;11.57;;;;;;;-0.17;86.07;98507.47;119839;1144;65127;-87
2021/01/07 08:04:18;;;;;;;22.35;11.35;;;;;;;-0.08;85.35;98496.61;119907;1144;65093;-89
2021/01/07 08:06:47;;;;;;;20.23;10.70;;;;;;;0.01;85.11;98492.80;119902;1144;65156;-85
2021/01/07 08:09:16;;;;;;;22.43;12.47;;;;;;;0.12;85.89;98501.95;119889;1145;65021;-87
2021/01/07 08:11:52;;;;;;;42.50;13.45;;;;;;;0.26;85.34;98499.66;119892;1144;65621;-85
2021/01/07 08:14:28;;;;;;;25.57;13.80;;;;;;;0.42;85.21;98499.89;119883;1144;65281;-87
2021/01/07 08:16:56;;;;;;;23.27;12.10;;;;;;;0.59;84.93;98509.73;119897;1145;65213;-87
2021/01/07 08:19:30;;;;;;;22.83;13.80;;;;;;;0.78;85.15;98502.81;119875;1145;65187;-87
2021/01/07 08:21:57;;;;;;;23.90;13.13;;;;;;;1.04;85.11;98501.72;119925;1144;65063;-85
2021/01/07 08:24:27;;;;;;;34.17;17.60;;;;;;;1.17;84.50;98499.41;119809;1144;65550;-86
2021/01/07 08:26:59;;;;;;;34.07;19.87;;;;;;;1.38;84.80;98494.99;119860;1144;65098;-86
2021/01/07 08:29:27;;;;;;;32.50;19.60;;;;;;;1.45;83.91;98499.05;119865;1144;65110;-86
2021/01/07 08:31:59;;;;;;;39.90;20.73;;;;;;;1.52;84.09;98500.49;119886;1144;65191;-87
2021/01/07 08:34:29;;;;;;;35.80;18.33;;;;;;;1.73;84.51;98500.48;119862;1144;65076;-85
2021/01/07 08:37:17;;;;;;;38.23;17.83;;;;;;;1.82;83.45;98502.68;119890;1144;65130;-84
2021/01/07 08:39:44;;;;;;;27.57;15.43;;;;;;;1.88;83.37;98497.14;119859;1144;65664;-86
2021/01/07 08:42:14;;;;;;;24.70;13.33;;;;;;;1.89;82.95;98510.22;119833;1144;65024;-89
2021/01/07 08:44:41;;;;;;;20.03;10.87;;;;;;;1.76;83.05;98500.33;119890;1144;65110;-87
2021/01/07 08:47:24;;;;;;;15.63;8.53;;;;;;;1.65;83.11;98492.91;119910;1144;65076;-84
2021/01/07 08:50:04;;;;;;;14.30;8.05;;;;;;;1.58;83.13;98502.00;119904;1145;65149;-86
2021/01/07 08:52:30;;;;;;;19.13;10.07;;;;;;;1.62;83.18;98495.69;120107;1144;65098;-84
2021/01/07 08:54:57;;;;;;;14.43;8.20;;;;;;;1.65;83.42;98499.95;120101;1144;65130;-85
2021/01/07 08:57:24;;;;;;;10.37;7.30;;;;;;;1.69;83.32;98501.53;120093;1144;65191;-86
2021/01/07 08:59:50;;;;;;;20.75;10.55;;;;;;;1.68;82.90;98500.67;120052;1145;65108;-86
2021/01/07 09:02:19;;;;;;;17.53;9.37;;;;;;;1.70;82.95;98493.55;119981;1145;65111;-84
2021/01/07 09:04:49;;;;;;;10.57;6.53;;;;;;;1.78;82.91;98494.09;120017;1144;65015;-87
2021/01/07 09:07:16;;;;;;;9.67;7.50;;;;;;;1.81;83.37;98496.56;119879;1144;65095;-85
2021/01/07 09:09:43;;;;;;;13.83;5.93;;;;;;;1.87;83.02;98500.70;119905;1144;65133;-87
2021/01/07 09:12:19;;;;;;;12.27;7.80;;;;;;;1.99;83.61;98496.66;119888;1144;65111;-86
2021/01/07 09:14:55;;;;;;;11.50;7.43;;;;;;;2.10;83.26;98492.60;119851;1144;65212;-87
2021/01/07 09:17:41;;;;;;;12.87;7.77;;;;;;;2.27;83.62;98497.05;119888;1144;65084;-88
2021/01/07 09:20:17;;;;;;;17.20;9.97;;;;;;;2.30;83.08;98494.29;119864;1144;65520;-86
2021/01/07 09:22:44;;;;;;;13.40;8.90;;;;;;;2.28;82.82;98495.27;119832;1144;65150;-91
2021/01/07 09:25:17;;;;;;;12.63;8.30;;;;;;;2.20;82.27;98490.38;119876;1145;65070;-89
2021/01/07 09:27:45;;;;;;;17.07;9.27;;;;;;;2.18;82.89;98486.97;119918;1144;65277;-87
2021/01/07 09:30:12;;;;;;;15.23;8.67;;;;;;;2.12;82.61;98493.38;119925;1144;65526;-88
2021/01/07 09:32:40;;;;;;;17.73;9.87;;;;;;;2.09;82.79;98493.50;119870;1145;65153;-86
2021/01/07 09:35:07;;;;;;;18.10;10.40;;;;;;;2.02;82.61;98492.08;119840;1144;65171;-87
2021/01/07 09:37:35;;;;;;;15.33;9.57;;;;;;;1.92;82.45;98508.39;119852;1145;65233;-85
2021/01/07 09:40:04;;;;;;;20.27;10.73;;;;;;;1.81;82.71;98500.98;119835;1144;65112;-86
2021/01/07 09:42:32;;;;;;;18.73;9.67;;;;;;;1.84;83.45;98501.67;119839;1145;65167;-87
2021/01/07 09:45:01;;;;;;;13.43;9.30;;;;;;;1.90;83.03;98500.55;119889;1145;65101;-86
2021/01/07 09:47:27;;;;;;;15.40;9.40;;;;;;;1.87;82.96;98501.55;119857;1144;65113;-86
2021/01/07 09:49:56;;;;;;;13.50;8.67;;;;;;;1.87;82.92;98503.33;119774;1145;64976;-88
2021/01/07 09:52:23;;;;;;;20.20;9.70;;;;;;;1.88;83.22;98503.25;119817;1144;65182;-85
2021/01/07 09:54:50;;;;;;;15.23;8.87;;;;;;;1.92;83.14;98503.98;119773;1144;65255;-87
2021/01/07 09:57:16;;;;;;;16.67;9.50;;;;;;;1.82;82.92;98498.27;119782;1144;65085;-86
2021/01/07 09:59:43;;;;;;;14.85;8.90;;;;;;;1.77;82.73;98502.88;119768;1144;65072;-86
2021/01/07 10:02:11;;;;;;;19.90;8.65;;;;;;;1.67;82.62;98495.49;119837;1144;65093;-86
2021/01/07 10:04:44;;;;;;;16.70;7.15;;;;;;;1.69;83.10;98506.80;119792;1145;65107;-86
2021/01/07 10:07:12;;;;;;;10.73;7.33;;;;;;;1.72;82.81;98497.00;119937;1144;65137;-86
2021/01/07 10:09:40;;;;;;;10.37;6.00;;;;;;;1.70;82.55;98493.55;119832;1144;65157;-85
2021/01/07 10:12:08;;;;;;;9.40;6.20;;;;;;;1.70;82.75;98496.19;119787;1144;65101;-85
2021/01/07 10:14:35;;;;;;;11.00;7.25;;;;;;;1.66;82.40;98499.91;119845;1144;65137;-86
2021/01/07 10:17:07;;;;;;;20.23;9.03;;;;;;;1.63;82.64;98500.02;119866;1145;65348;-88
2021/01/07 10:19:36;;;;;;;10.20;5.93;;;;;;;1.63;82.61;98502.66;119901;1144;65142;-85
2021/01/07 10:22:15;;;;;;;15.87;7.93;;;;;;;1.62;82.79;98501.80;119850;1144;65015;-87
2021/01/07 10:24:44;;;;;;;13.57;7.33;;;;;;;1.62;82.76;98500.95;119828;1144;65101;-85
2021/01/07 10:27:15;;;;;;;12.80;7.07;;;;;;;1.59;82.51;98501.07;119857;1144;65165;-85
2021/01/07 10:29:44;;;;;;;12.73;7.17;;;;;;;1.63;83.45;98502.66;119859;1144;65218;-89
2021/01/07 10:32:18;;;;;;;12.63;6.63;;;;;;;1.74;82.86;98497.77;119919;1145;65120;-85
2021/01/07 10:34:49;;;;;;;13.53;9.23;;;;;;;1.80;83.04;98497.49;119874;1144;65105;-85
2021/01/07 10:37:22;;;;;;;29.70;16.95;;;;;;;1.81;82.62;98496.56;119854;1144;65101;-84
2021/01/07 10:39:53;;;;;;;19.07;9.17;;;;;;;1.89;83.05;98498.84;119863;1144;65101;-86
2021/01/07 10:42:21;;;;;;;9.83;6.80;;;;;;;1.96;82.71;98486.24;119854;1145;65162;-86
2021/01/07 10:44:49;;;;;;;140.67;47.03;;;;;;;1.96;82.16;98494.14;119804;1145;65056;-86
2021/01/07 10:47:16;;;;;;;19.00;8.77;;;;;;;1.92;82.41;98492.59;119786;1145;65121;-84
2021/01/07 10:49:46;;;;;;;38.03;17.33;;;;;;;1.93;82.53;98491.67;119684;1145;65120;-88
2021/01/07 10:52:26;;;;;;;13.07;6.93;;;;;;;1.97;82.22;98486.17;119899;1144;65236;-85
2021/01/07 10:55:10;;;;;;;23.43;11.33;;;;;;;1.93;81.71;98484.62;119798;1144;65699;-87
2021/01/07 10:58:02;;;;;;;16.57;8.50;;;;;;;1.90;82.27;98485.59;119774;1144;65088;-84
2021/01/07 11:00:47;;;;;;;11.40;6.20;;;;;;;2.01;82.45;98479.84;119846;1144;65194;-84
2021/01/07 11:03:52;;;;;;;12.60;7.22;;;;;;;2.04;81.98;98476.23;119877;1144;65188;-83
2021/01/07 11:06:23;;;;;;;11.27;7.30;;;;;;;2.05;81.80;98484.05;119904;1145;65085;-83
2021/01/07 11:08:57;;;;;;;11.00;7.43;;;;;;;2.03;82.31;98485.03;119811;1145;65105;-84
2021/01/07 11:11:28;;;;;;;20.07;12.57;;;;;;;2.12;82.34;98485.47;119860;1144;65085;-87
2021/01/07 11:14:07;;;;;;;12.90;6.87;;;;;;;2.20;81.80;98486.88;119883;1144;65100;-84
2021/01/07 11:16:41;;;;;;;13.50;7.60;;;;;;;2.11;81.33;98488.19;119874;1145;65120;-85
2021/01/07 11:19:09;;;;;;;12.47;7.93;;;;;;;2.01;81.34;98490.38;119911;1144;65124;-84
2021/01/07 11:21:43;;;;;;;9.50;6.97;;;;;;;2.00;81.72;98490.45;119871;1144;65220;-83
2021/01/07 11:24:10;;;;;;;13.13;9.03;;;;;;;2.08;82.34;98485.67;119875;1144;65047;-86
2021/01/07 11:26:39;;;;;;;14.53;8.67;;;;;;;2.17;82.18;98482.63;119837;1144;65149;-83
2021/01/07 11:29:07;;;;;;;19.60;10.57;;;;;;;2.14;81.45;98482.75;119906;1145;65194;-83